createdAt,value
2018-11-05T00:01:31.033Z,6.73
2018-11-05T00:04:00.563Z,6.07
2018-11-05T00:06:30.209Z,5.90
2018-11-05T00:08:59.698Z,5.40
2018-11-05T00:11:29.432Z,6.40
2018-11-05T00:13:59.971Z,5.80
2018-11-05T00:16:30.053Z,5.63
2018-11-05T00:18:59.878Z,6.20
2018-11-05T00:21:29.394Z,6.13
2018-11-05T00:23:59.203Z,6.20
2018-11-05T00:26:28.728Z,5.97
2018-11-05T00:28:58.364Z,6.23
2018-11-05T00:31:27.977Z,6.13
2018-11-05T00:33:58.211Z,6.23
2018-11-05T00:36:27.757Z,5.93
2018-11-05T00:38:57.490Z,6.17
2018-11-05T00:41:27.193Z,6.03
2018-11-05T00:43:56.838Z,5.50
2018-11-05T00:46:26.383Z,6.13
2018-11-05T00:48:56.047Z,6.33
2018-11-05T00:51:25.753Z,6.13
2018-11-05T00:53:55.416Z,5.87
2018-11-05T00:56:25.223Z,6.13
2018-11-05T00:58:54.767Z,5.80
2018-11-05T01:01:24.435Z,5.93
2018-11-05T01:03:53.960Z,6.30
2018-11-05T01:06:23.488Z,6.33
2018-11-05T01:08:53.049Z,6.50
2018-11-05T01:11:22.595Z,6.53
2018-11-05T01:13:52.214Z,6.13
2018-11-05T01:16:21.839Z,5.70
2018-11-05T01:18:51.332Z,5.83
2018-11-05T01:21:22.475Z,5.87
2018-11-05T01:23:51.984Z,6.03
2018-11-05T01:26:21.679Z,6.00
2018-11-05T01:28:51.107Z,6.10
2018-11-05T01:31:20.853Z,5.80
2018-11-05T01:33:50.495Z,6.30
2018-11-05T01:36:20.220Z,5.67
2018-11-05T01:38:49.858Z,6.23
2018-11-05T01:41:19.726Z,6.63
2018-11-05T01:43:49.834Z,6.00
2018-11-05T01:46:19.520Z,6.63
2018-11-05T01:48:49.081Z,6.63
2018-11-05T01:51:18.732Z,6.23
2018-11-05T01:53:48.408Z,6.33
2018-11-05T01:56:18.149Z,6.00
2018-11-05T01:58:47.751Z,6.17
2018-11-05T02:01:17.409Z,7.07
2018-11-05T02:03:47.328Z,7.33
2018-11-05T02:06:17.117Z,6.60
2018-11-05T02:08:46.683Z,6.70
2018-11-05T02:11:16.397Z,6.90
2018-11-05T02:13:46.021Z,6.17
2018-11-05T02:16:15.820Z,6.70
2018-11-05T02:18:45.485Z,6.53
2018-11-05T02:21:15.165Z,6.27
2018-11-05T02:23:44.736Z,7.73
2018-11-05T02:26:14.526Z,6.17
2018-11-05T02:28:44.156Z,6.73
2018-11-05T02:31:13.687Z,6.63
2018-11-05T02:33:43.244Z,6.57
2018-11-05T02:36:12.828Z,6.97
2018-11-05T02:38:42.433Z,6.97
2018-11-05T02:41:12.135Z,6.40
2018-11-05T02:43:41.671Z,6.97
2018-11-05T02:46:11.183Z,7.40
2018-11-05T02:48:41.276Z,7.27
2018-11-05T02:51:10.758Z,6.87
2018-11-05T02:53:40.543Z,7.67
2018-11-05T02:56:10.130Z,7.67
2018-11-05T02:58:39.695Z,7.27
2018-11-05T03:01:10.191Z,7.80
2018-11-05T03:03:39.897Z,7.77
2018-11-05T03:06:09.439Z,6.90
2018-11-05T03:08:39.195Z,7.03
2018-11-05T03:11:08.830Z,6.90
2018-11-05T03:13:38.694Z,7.90
2018-11-05T03:16:08.415Z,6.70
2018-11-05T03:18:37.897Z,8.20
2018-11-05T03:21:07.686Z,7.70
2018-11-05T03:23:37.319Z,7.27
2018-11-05T03:26:08.706Z,7.17
2018-11-05T03:28:38.391Z,7.93
2018-11-05T03:31:08.067Z,7.87
2018-11-05T03:33:37.899Z,6.63
2018-11-05T03:36:07.676Z,8.00
2018-11-05T03:38:37.372Z,7.03
2018-11-05T03:41:07.616Z,7.63
2018-11-05T03:43:37.288Z,7.77
2018-11-05T03:46:07.139Z,7.63
2018-11-05T03:48:37.214Z,8.10
2018-11-05T03:51:09.430Z,8.17
2018-11-05T03:53:39.367Z,7.80
2018-11-05T03:56:08.874Z,7.47
2018-11-05T03:58:38.489Z,7.87
2018-11-05T04:01:08.255Z,6.73
2018-11-05T04:03:37.654Z,6.90
2018-11-05T04:06:08.722Z,7.33
2018-11-05T04:08:38.932Z,6.53
2018-11-05T04:11:08.504Z,7.33
2018-11-05T04:13:38.173Z,6.73
2018-11-05T04:16:08.512Z,7.43
2018-11-05T04:18:38.140Z,6.87
2018-11-05T04:21:07.882Z,6.77
2018-11-05T04:23:37.606Z,4.63
2018-11-05T04:26:07.224Z,7.67
2018-11-05T04:28:36.846Z,7.17
2018-11-05T04:31:06.330Z,6.33
2018-11-05T04:33:35.956Z,7.13
2018-11-05T04:36:08.086Z,7.00
2018-11-05T04:38:37.770Z,6.90
2018-11-05T04:41:07.213Z,7.33
2018-11-05T04:43:36.739Z,6.57
2018-11-05T04:46:06.449Z,7.07
2018-11-05T04:48:35.984Z,6.40
2018-11-05T04:51:05.681Z,6.17
2018-11-05T04:53:35.110Z,6.23
2018-11-05T04:56:04.651Z,6.67
2018-11-05T04:58:34.181Z,6.03
2018-11-05T05:01:03.305Z,7.40
2018-11-05T05:03:32.865Z,6.77
2018-11-05T05:06:02.485Z,7.20
2018-11-05T05:08:32.133Z,5.57
2018-11-05T05:11:01.790Z,6.10
2018-11-05T05:13:31.476Z,6.20
2018-11-05T05:16:01.521Z,5.50
2018-11-05T05:18:32.174Z,6.07
2018-11-05T05:21:01.947Z,6.47
2018-11-05T05:23:31.472Z,6.07
2018-11-05T05:26:01.974Z,5.80
2018-11-05T05:28:37.844Z,6.60
2018-11-05T05:31:07.920Z,6.43
2018-11-05T05:33:37.518Z,5.63
2018-11-05T05:36:07.902Z,6.43
2018-11-05T05:38:40.671Z,7.00
2018-11-05T05:41:10.393Z,7.20
2018-11-05T05:43:40.004Z,5.33
2018-11-05T05:46:09.677Z,6.50
2018-11-05T05:48:40.837Z,5.70
2018-11-05T05:51:10.752Z,5.03
2018-11-05T05:53:40.368Z,5.83
2018-11-05T05:56:10.252Z,5.37
2018-11-05T05:58:55.046Z,5.80
2018-11-05T06:01:24.572Z,5.47
2018-11-05T06:03:54.298Z,5.47
2018-11-05T06:06:24.042Z,6.87
2018-11-05T06:09:08.554Z,5.70
2018-11-05T06:11:38.962Z,6.03
2018-11-05T06:14:08.660Z,6.97
2018-11-05T06:16:38.346Z,5.93
2018-11-05T06:19:08.117Z,6.57
2018-11-05T06:21:37.626Z,7.17
2018-11-05T06:26:37.692Z,5.33
2018-11-05T06:29:07.973Z,6.10
2018-11-05T06:31:37.712Z,6.53
2018-11-05T06:34:07.457Z,6.10
2018-11-05T06:36:37.318Z,5.33
2018-11-05T06:39:18.548Z,5.80
2018-11-05T06:41:49.012Z,6.13
2018-11-05T06:44:19.629Z,6.33
2018-11-05T06:46:51.696Z,6.57
2018-11-05T06:49:21.463Z,5.37
2018-11-05T06:51:51.134Z,6.00
2018-11-05T06:54:20.860Z,6.67
2018-11-05T06:56:50.788Z,6.63
2018-11-05T06:59:20.515Z,7.27
2018-11-05T07:01:50.225Z,6.00
2018-11-05T07:04:19.879Z,6.40
2018-11-05T07:06:49.656Z,5.67
2018-11-05T07:09:19.954Z,7.33
2018-11-05T07:11:49.740Z,7.03
2018-11-05T07:14:19.587Z,7.83
2018-11-05T07:16:49.205Z,6.40
2018-11-05T07:19:18.934Z,6.13
2018-11-05T07:21:48.409Z,6.77
2018-11-05T07:24:18.105Z,5.93
2018-11-05T07:26:47.755Z,6.60
2018-11-05T07:29:17.918Z,6.93
2018-11-05T07:31:47.684Z,6.87
2018-11-05T07:34:17.680Z,6.80
2018-11-05T07:36:47.277Z,6.63
2018-11-05T07:39:16.913Z,6.07
2018-11-05T07:41:46.626Z,6.47
2018-11-05T07:44:16.270Z,6.23
2018-11-05T07:46:45.949Z,5.90
2018-11-05T07:49:15.652Z,6.10
2018-11-05T07:51:45.206Z,6.33
2018-11-05T07:54:14.900Z,4.60
2018-11-05T07:56:44.561Z,5.70
2018-11-05T07:59:14.252Z,4.10
2018-11-05T08:01:44.027Z,5.03
2018-11-05T08:04:13.888Z,4.63
2018-11-05T08:06:43.616Z,4.30
2018-11-05T08:09:13.481Z,5.37
2018-11-05T08:11:43.557Z,4.70
2018-11-05T08:14:13.303Z,4.43
2018-11-05T08:16:45.598Z,3.83
2018-11-05T08:19:16.183Z,4.93
2018-11-05T08:21:46.773Z,4.03
2018-11-05T08:24:17.837Z,4.63
2018-11-05T08:26:48.781Z,4.80
2018-11-05T08:29:19.853Z,4.47
2018-11-05T08:31:50.141Z,5.33
2018-11-05T08:34:20.469Z,5.30
2018-11-05T08:36:50.552Z,4.57
2018-11-05T08:39:35.389Z,3.73
2018-11-05T08:42:05.765Z,4.30
2018-11-05T08:44:35.542Z,4.73
2018-11-05T08:47:05.144Z,3.77
2018-11-05T08:49:34.834Z,3.70
2018-11-05T08:52:04.351Z,3.30
2018-11-05T08:54:34.289Z,3.23
2018-11-05T08:57:04.714Z,4.27
2018-11-05T08:59:34.525Z,3.97
2018-11-05T09:02:04.173Z,3.90
2018-11-05T09:04:34.838Z,4.20
2018-11-05T09:07:04.382Z,4.07
2018-11-05T09:09:34.270Z,3.73
2018-11-05T09:12:04.244Z,3.60
2018-11-05T09:14:33.669Z,3.53
2018-11-05T09:17:03.860Z,4.27
2018-11-05T09:19:33.353Z,3.87
2018-11-05T09:22:03.573Z,4.23
2018-11-05T09:24:33.023Z,3.67
2018-11-05T09:27:02.568Z,4.03
2018-11-05T09:29:32.473Z,4.40
2018-11-05T09:32:02.088Z,4.27
2018-11-05T09:34:31.765Z,3.80
2018-11-05T09:37:02.025Z,3.40
2018-11-05T09:39:31.876Z,3.40
2018-11-05T09:42:02.038Z,4.50
2018-11-05T09:44:31.829Z,3.67
2018-11-05T09:47:02.023Z,4.27
2018-11-05T09:49:32.163Z,3.90
2018-11-05T09:52:01.849Z,3.70
2018-11-05T09:54:31.515Z,4.17
2018-11-05T09:57:01.189Z,3.97
2018-11-05T09:59:31.313Z,3.67
2018-11-05T10:02:00.980Z,3.60
2018-11-05T10:04:31.164Z,3.53
2018-11-05T10:07:00.616Z,4.10
2018-11-05T10:09:30.210Z,3.50
2018-11-05T10:11:59.916Z,3.57
2018-11-05T10:14:29.548Z,3.63
2018-11-05T10:16:59.254Z,3.57
2018-11-05T10:19:28.712Z,4.13
2018-11-05T10:21:59.345Z,3.70
2018-11-05T10:24:28.840Z,3.53
2018-11-05T10:26:59.072Z,3.67
2018-11-05T10:29:28.610Z,3.90
2018-11-05T10:31:58.408Z,4.17
2018-11-05T10:34:28.034Z,3.23
2018-11-05T10:36:57.681Z,3.83
2018-11-05T10:39:27.338Z,3.57
2018-11-05T10:41:56.879Z,4.10
2018-11-05T10:44:26.596Z,4.00
2018-11-05T10:46:56.380Z,3.63
2018-11-05T10:49:30.659Z,3.47
2018-11-05T10:52:02.013Z,3.90
2018-11-05T10:54:33.433Z,4.13
2018-11-05T10:57:03.449Z,3.60
2018-11-05T10:59:33.527Z,3.73
2018-11-05T11:04:10.625Z,3.90
2018-11-05T11:06:41.125Z,3.77
2018-11-05T11:09:11.475Z,3.57
2018-11-05T11:11:41.350Z,3.87
2018-11-05T11:14:12.148Z,3.60
2018-11-05T11:16:46.287Z,4.10
2018-11-05T11:19:16.241Z,4.13
2018-11-05T11:21:45.957Z,4.13
2018-11-05T11:24:15.696Z,3.17
2018-11-05T11:26:45.348Z,4.00
2018-11-05T11:29:15.000Z,4.07
2018-11-05T11:31:44.770Z,4.37
2018-11-05T11:34:14.387Z,3.60
2018-11-05T11:36:44.092Z,4.13
2018-11-05T11:39:13.864Z,3.60
2018-11-05T11:41:43.443Z,3.13
2018-11-05T11:44:13.603Z,4.17
2018-11-05T11:46:43.125Z,4.53
2018-11-05T11:49:12.843Z,3.50
2018-11-05T11:51:42.604Z,3.20
2018-11-05T11:54:12.137Z,3.20
2018-11-05T11:56:41.729Z,3.60
2018-11-05T11:59:11.532Z,3.27
2018-11-05T12:01:46.491Z,3.30
2018-11-05T12:04:15.937Z,2.83
2018-11-05T12:06:46.204Z,3.37
2018-11-05T12:09:15.746Z,2.87
2018-11-05T12:11:45.316Z,3.50
2018-11-05T12:14:15.276Z,3.80
2018-11-05T12:16:45.014Z,2.93
2018-11-05T12:19:14.758Z,2.63
2018-11-05T12:21:44.414Z,2.50
2018-11-05T12:24:14.156Z,3.40
2018-11-05T12:26:44.254Z,3.00
2018-11-05T12:29:14.175Z,2.77
2018-11-05T12:31:43.578Z,2.90
2018-11-05T12:34:13.056Z,2.60
2018-11-05T12:36:42.939Z,3.50
2018-11-05T12:39:12.834Z,2.30
2018-11-05T12:41:42.581Z,3.10
2018-11-05T12:44:12.263Z,2.67
2018-11-05T12:46:42.499Z,2.43
2018-11-05T12:49:12.450Z,2.87
2018-11-05T12:51:42.247Z,2.87
2018-11-05T12:54:12.616Z,2.93
2018-11-05T12:56:42.519Z,2.77
2018-11-05T12:59:12.176Z,3.00
2018-11-05T13:01:41.823Z,2.90
2018-11-05T13:04:11.449Z,2.50
2018-11-05T13:06:41.089Z,2.63
2018-11-05T13:09:10.989Z,2.60
2018-11-05T13:11:40.493Z,2.80
2018-11-05T13:14:10.119Z,3.13
2018-11-05T13:16:39.991Z,2.63
2018-11-05T13:19:09.837Z,2.70
2018-11-05T13:21:39.130Z,2.73
2018-11-05T13:24:08.865Z,2.77
2018-11-05T13:26:38.574Z,3.17
2018-11-05T13:29:08.692Z,3.00
2018-11-05T13:31:38.408Z,3.07
2018-11-05T13:34:08.109Z,2.70
2018-11-05T13:36:37.927Z,3.00
2018-11-05T13:39:09.158Z,3.10
2018-11-05T13:41:38.924Z,3.07
2018-11-05T13:44:39.151Z,3.43
2018-11-05T13:47:09.751Z,3.13
2018-11-05T13:49:39.162Z,2.67
2018-11-05T13:52:08.697Z,3.33
2018-11-05T13:54:38.382Z,2.70
2018-11-05T13:57:08.000Z,2.87
2018-11-05T13:59:37.653Z,3.60
2018-11-05T14:02:07.562Z,3.13
2018-11-05T14:04:37.305Z,3.00
2018-11-05T14:07:07.094Z,3.03
2018-11-05T14:09:36.555Z,2.87
2018-11-05T14:12:06.267Z,3.00
2018-11-05T14:14:35.722Z,3.33
2018-11-05T14:17:05.289Z,2.83
2018-11-05T14:19:34.789Z,3.40
2018-11-05T14:22:04.275Z,2.70
2018-11-05T14:24:33.584Z,2.83
2018-11-05T14:27:03.179Z,2.47
2018-11-05T14:29:33.098Z,2.80
2018-11-05T14:32:02.600Z,3.00
2018-11-05T14:34:32.541Z,2.73
2018-11-05T14:37:02.271Z,2.87
2018-11-05T14:39:31.921Z,2.53
2018-11-05T14:42:01.626Z,3.00
2018-11-05T14:44:31.460Z,3.33
2018-11-05T14:47:01.585Z,2.83
2018-11-05T14:49:31.711Z,3.30
2018-11-05T14:52:01.472Z,2.67
2018-11-05T14:54:31.302Z,2.97
2018-11-05T14:57:01.015Z,2.70
2018-11-05T14:59:30.647Z,3.00
2018-11-05T15:02:05.712Z,2.70
2018-11-05T15:04:35.361Z,3.10
2018-11-05T15:07:04.989Z,3.47
2018-11-05T15:09:34.459Z,2.90
2018-11-05T15:12:04.391Z,2.97
2018-11-05T15:14:34.451Z,2.83
2018-11-05T15:17:04.000Z,2.63
2018-11-05T15:19:34.223Z,2.80
2018-11-05T15:22:03.548Z,3.00
2018-11-05T15:24:33.261Z,2.70
2018-11-05T15:27:02.911Z,2.90
2018-11-05T15:29:32.761Z,3.07
2018-11-05T15:32:21.874Z,3.17
2018-11-05T15:35:05.582Z,3.07
2018-11-05T15:37:36.021Z,2.87
2018-11-05T15:40:05.575Z,3.03
2018-11-05T15:42:34.978Z,3.03
2018-11-05T15:45:04.375Z,3.20
2018-11-05T15:47:33.873Z,3.20
2018-11-05T15:50:03.617Z,2.93
2018-11-05T15:52:33.319Z,2.93
2018-11-05T15:55:02.684Z,3.00
2018-11-05T15:57:32.392Z,4.10
2018-11-05T16:00:02.230Z,2.93
2018-11-05T16:02:31.975Z,2.90
2018-11-05T16:05:01.695Z,3.23
2018-11-05T16:07:31.338Z,2.83
2018-11-05T16:10:00.909Z,3.10
2018-11-05T16:12:31.519Z,3.40
2018-11-05T16:15:01.596Z,2.97
2018-11-05T16:17:31.880Z,3.23
2018-11-05T16:20:01.683Z,3.00
2018-11-05T16:22:31.383Z,2.90
2018-11-05T16:25:01.285Z,3.20
2018-11-05T16:27:31.254Z,3.57
2018-11-05T16:30:00.837Z,3.80
2018-11-05T16:32:31.355Z,3.53
2018-11-05T16:35:00.884Z,4.43
2018-11-05T16:37:30.764Z,4.43
2018-11-05T16:40:00.502Z,4.30
2018-11-05T16:42:30.573Z,3.87
2018-11-05T16:45:00.384Z,3.77
2018-11-05T16:47:30.045Z,5.00
2018-11-05T16:49:59.766Z,4.97
2018-11-05T16:52:29.606Z,4.43
2018-11-05T16:54:59.088Z,4.90
2018-11-05T16:57:29.034Z,5.03
2018-11-05T16:59:58.755Z,5.30
2018-11-05T17:02:28.397Z,5.23
2018-11-05T17:04:58.084Z,5.70
2018-11-05T17:07:27.614Z,6.00
2018-11-05T17:09:57.298Z,5.70
2018-11-05T17:12:27.064Z,6.07
2018-11-05T17:14:56.784Z,6.47
2018-11-05T17:17:27.058Z,6.20
2018-11-05T17:19:56.679Z,6.30
2018-11-05T17:22:26.165Z,5.83
2018-11-05T17:24:56.191Z,7.10
2018-11-05T17:27:25.756Z,6.53
2018-11-05T17:29:55.461Z,6.77
2018-11-05T17:32:25.182Z,5.77
2018-11-05T17:34:54.717Z,6.93
2018-11-05T17:37:24.291Z,6.00
2018-11-05T17:39:54.017Z,6.33
2018-11-05T17:42:24.267Z,5.97
2018-11-05T17:44:53.892Z,5.50
2018-11-05T17:47:23.708Z,6.10
2018-11-05T17:49:53.493Z,6.27
2018-11-05T17:52:23.669Z,6.53
2018-11-05T17:54:53.300Z,6.97
2018-11-05T17:57:22.996Z,7.50
2018-11-05T17:59:52.736Z,7.73
2018-11-05T18:02:24.239Z,7.03
2018-11-05T18:04:55.863Z,6.60
2018-11-05T18:07:26.172Z,6.20
2018-11-05T18:09:56.247Z,6.10
2018-11-05T18:12:26.200Z,6.67
2018-11-05T18:14:56.293Z,6.10
2018-11-05T18:17:26.071Z,5.73
2018-11-05T18:19:56.397Z,5.83
2018-11-05T18:22:26.388Z,5.33
2018-11-05T18:24:56.243Z,5.63
2018-11-05T18:27:25.976Z,6.17
2018-11-05T18:29:55.945Z,6.10
2018-11-05T18:32:25.767Z,7.43
2018-11-05T18:34:55.501Z,6.00
2018-11-05T18:37:25.500Z,7.60
2018-11-05T18:39:55.147Z,7.87
2018-11-05T18:42:25.070Z,8.73
2018-11-05T18:44:54.675Z,7.63
2018-11-05T18:47:24.867Z,8.07
2018-11-05T18:49:54.418Z,5.87
2018-11-05T18:52:24.379Z,7.83
2018-11-05T18:54:54.100Z,6.87
2018-11-05T18:57:23.873Z,6.53
2018-11-05T18:59:53.477Z,6.60
2018-11-05T19:02:28.169Z,7.10
2018-11-05T19:04:58.337Z,6.63
2018-11-05T19:07:28.135Z,6.07
2018-11-05T19:09:57.787Z,6.07
2018-11-05T19:12:27.541Z,7.33
2018-11-05T19:14:57.597Z,7.03
2018-11-05T19:17:27.532Z,6.47
2018-11-05T19:19:57.477Z,7.00
2018-11-05T19:22:27.052Z,6.77
2018-11-05T19:24:56.632Z,6.27
2018-11-05T19:27:26.174Z,7.57
2018-11-05T19:29:55.668Z,7.00
2018-11-05T19:32:25.279Z,6.43
2018-11-05T19:34:54.926Z,7.30
2018-11-05T19:37:24.498Z,6.83
2018-11-05T19:39:54.676Z,7.27
2018-11-05T19:42:24.230Z,7.80
2018-11-05T19:44:53.787Z,6.07
2018-11-05T19:47:23.371Z,6.23
2018-11-05T19:49:53.145Z,5.63
2018-11-05T19:52:22.847Z,6.53
2018-11-05T19:54:52.610Z,6.83
2018-11-05T19:57:22.732Z,6.83
2018-11-05T19:59:52.273Z,7.03
2018-11-05T20:02:26.705Z,8.10
2018-11-05T20:04:56.369Z,7.10
2018-11-05T20:07:26.505Z,7.30
2018-11-05T20:09:56.239Z,8.33
2018-11-05T20:12:26.104Z,6.93
2018-11-05T20:14:55.842Z,7.27
2018-11-05T20:17:25.503Z,6.93
2018-11-05T20:19:55.259Z,7.73
2018-11-05T20:22:25.268Z,7.17
2018-11-05T20:24:55.007Z,6.17
2018-11-05T20:27:24.639Z,7.07
2018-11-05T20:29:54.408Z,7.60
2018-11-05T20:32:24.387Z,7.93
2018-11-05T20:34:53.728Z,8.37
2018-11-05T20:37:23.470Z,7.10
2018-11-05T20:39:53.161Z,6.60
2018-11-05T20:42:23.148Z,6.40
2018-11-05T20:44:52.800Z,8.67
2018-11-05T20:47:22.656Z,8.00
2018-11-05T20:49:52.194Z,6.57
2018-11-05T20:52:21.907Z,6.67
2018-11-05T20:54:51.619Z,6.53
2018-11-05T20:57:21.458Z,6.73
2018-11-05T20:59:51.233Z,7.77
2018-11-05T21:02:20.791Z,6.33
2018-11-05T21:04:50.557Z,6.73
2018-11-05T21:07:20.204Z,7.03
2018-11-05T21:09:50.003Z,6.07
2018-11-05T21:12:19.516Z,7.47
2018-11-05T21:14:49.548Z,6.97
2018-11-05T21:17:19.505Z,6.67
2018-11-05T21:19:49.254Z,7.73
2018-11-05T21:22:18.904Z,6.93
2018-11-05T21:24:48.670Z,7.23
2018-11-05T21:27:18.351Z,7.97
2018-11-05T21:29:47.904Z,8.20
2018-11-05T21:32:17.586Z,7.60
2018-11-05T21:34:47.158Z,7.93
2018-11-05T21:37:16.880Z,6.90
2018-11-05T21:39:46.489Z,7.00
2018-11-05T21:42:16.455Z,7.63
2018-11-05T21:44:45.930Z,6.20
2018-11-05T21:47:15.575Z,7.67
2018-11-05T21:49:45.129Z,8.17
2018-11-05T21:52:14.713Z,7.40
2018-11-05T21:54:44.404Z,6.30
2018-11-05T21:57:14.102Z,7.73
2018-11-05T21:59:43.856Z,7.67
2018-11-05T22:02:13.823Z,7.57
2018-11-05T22:04:43.474Z,6.33
2018-11-05T22:07:13.481Z,6.77
2018-11-05T22:09:43.053Z,8.17
2018-11-05T22:12:13.068Z,8.17
2018-11-05T22:14:42.654Z,7.53
2018-11-05T22:17:12.164Z,7.70
2018-11-05T22:19:42.023Z,6.60
2018-11-05T22:22:11.849Z,7.53
2018-11-05T22:24:41.626Z,6.90
2018-11-05T22:27:11.291Z,6.83
2018-11-05T22:29:40.686Z,6.50
2018-11-05T22:32:10.293Z,6.63
2018-11-05T22:34:40.058Z,7.07
2018-11-05T22:37:10.025Z,7.60
2018-11-05T22:39:39.686Z,5.90
2018-11-05T22:42:09.540Z,7.87
2018-11-05T22:44:39.284Z,6.53
2018-11-05T22:47:08.876Z,6.70
2018-11-05T22:49:38.958Z,7.37
2018-11-05T22:52:09.126Z,7.40
2018-11-05T22:54:38.897Z,6.40
2018-11-05T22:57:08.508Z,6.60
2018-11-05T22:59:38.269Z,6.47
2018-11-05T23:02:08.120Z,7.07
2018-11-05T23:04:37.719Z,7.00
2018-11-05T23:07:07.652Z,7.13
2018-11-05T23:09:37.289Z,6.87
2018-11-05T23:12:07.124Z,6.37
2018-11-05T23:14:36.819Z,5.53
2018-11-05T23:17:06.618Z,6.57
2018-11-05T23:19:36.200Z,6.33
2018-11-05T23:22:05.711Z,5.67
2018-11-05T23:24:35.160Z,6.10
2018-11-05T23:27:04.687Z,5.33
2018-11-05T23:29:34.482Z,5.70
2018-11-05T23:32:03.925Z,6.37
2018-11-05T23:34:33.444Z,6.47
2018-11-05T23:37:03.192Z,6.27
2018-11-05T23:39:32.908Z,7.03
2018-11-05T23:42:02.496Z,6.07
2018-11-05T23:44:32.573Z,5.87
2018-11-05T23:47:02.265Z,5.97
2018-11-05T23:49:32.261Z,6.23
2018-11-05T23:52:01.949Z,5.97
2018-11-05T23:54:31.829Z,5.13
2018-11-05T23:57:01.597Z,6.13
2018-11-05T23:59:31.183Z,6.10
